Time;durP1;ratioP1;P1;durP2;ratioP2;P2;SDS_P1;SDS_P2;PMS_P1;PMS_P2;Temp;Humidity;BMP_temperature;BMP_pressure;BME280_temperature;BME280_humidity;BME280_pressure;Samples;Min_cycle;Max_cycle;Signal;HPM_P1;HPM_P2
2022/03/11 00:01:48;;;;;;;10.03;5.20;;;0.10;99.90;;;;;;4978428;28;20642;-81
2022/03/11 00:04:14;;;;;;;54.50;19.30;;;-0.40;99.90;;;;;;4978119;28;20589;-81
2022/03/11 00:06:39;;;;;;;64.07;23.47;;;-0.40;99.90;;;;;;4980458;28;20646;-81
2022/03/11 00:09:05;;;;;;;41.13;16.17;;;-0.40;99.90;;;;;;4978754;28;20270;-81
2022/03/11 00:11:30;;;;;;;42.63;16.33;;;-0.50;99.90;;;;;;4979005;28;20181;-81
2022/03/11 00:13:56;;;;;;;32.37;11.03;;;-0.40;99.90;;;;;;4979982;28;20259;-81
2022/03/11 00:16:23;;;;;;;25.57;10.60;;;-0.50;99.90;;;;;;4979013;28;20208;-81
2022/03/11 00:18:50;;;;;;;19.90;8.93;;;-0.50;99.90;;;;;;4977483;28;20470;-81
2022/03/11 00:21:15;;;;;;;19.97;8.17;;;-0.50;99.90;;;;;;4979355;28;20183;-81
2022/03/11 00:23:42;;;;;;;19.53;8.80;;;-0.60;99.90;;;;;;4977800;28;20992;-81
2022/03/11 00:26:09;;;;;;;15.30;8.23;;;-0.60;99.90;;;;;;4978929;28;20196;-81
2022/03/11 00:28:35;;;;;;;23.23;8.47;;;-0.70;99.90;;;;;;4978002;28;20412;-81
2022/03/11 00:31:01;;;;;;;25.57;9.27;;;-0.70;99.90;;;;;;4978998;28;20419;-81
2022/03/11 00:33:27;;;;;;;17.77;8.40;;;-0.70;99.90;;;;;;4979987;28;20423;-81
2022/03/11 00:35:53;;;;;;;21.03;8.17;;;-0.80;99.90;;;;;;4982247;28;20944;-81
2022/03/11 00:38:18;;;;;;;17.33;7.77;;;-0.20;99.90;;;;;;4979983;28;20180;-80
2022/03/11 00:40:44;;;;;;;11.83;6.37;;;-0.80;99.90;;;;;;4980756;28;20188;-81
2022/03/11 00:43:10;;;;;;;14.83;6.83;;;-0.80;99.90;;;;;;4980448;28;20207;-81
2022/03/11 00:45:36;;;;;;;16.53;6.60;;;-0.80;99.90;;;;;;4981293;28;20696;-81
2022/03/11 00:48:02;;;;;;;12.30;6.03;;;-0.80;99.90;;;;;;4979350;28;20428;-81
2022/03/11 00:50:28;;;;;;;10.83;6.07;;;-0.80;99.90;;;;;;4979428;28;20184;-81
2022/03/11 00:52:53;;;;;;;11.27;6.13;;;-0.80;99.90;;;;;;4979535;28;20207;-80
2022/03/11 00:55:19;;;;;;;10.77;6.83;;;-0.90;99.90;;;;;;4980539;28;20239;-81
2022/03/11 00:57:45;;;;;;;11.53;6.37;;;-0.90;99.90;;;;;;4978722;28;20184;-80
2022/03/11 01:00:11;;;;;;;9.43;6.33;;;-0.90;99.90;;;;;;4980364;28;20184;-81
2022/03/11 01:02:38;;;;;;;10.40;6.53;;;-0.90;99.90;;;;;;4978978;28;20597;-81
2022/03/11 01:05:05;;;;;;;10.37;5.83;;;-0.90;99.90;;;;;;4978718;28;20810;-80
2022/03/11 01:07:31;;;;;;;12.37;6.23;;;-0.80;99.90;;;;;;4978790;28;20439;-80
2022/03/11 01:09:57;;;;;;;9.43;5.90;;;-0.80;99.90;;;;;;4979796;28;20419;-80
2022/03/11 01:12:23;;;;;;;12.30;6.50;;;-0.90;99.90;;;;;;4979656;28;20423;-81
2022/03/11 01:14:49;;;;;;;14.83;8.67;;;-0.80;99.90;;;;;;4979010;28;20582;-81
2022/03/11 01:17:15;;;;;;;17.70;10.27;;;-0.80;99.90;;;;;;4978867;28;20181;-80
2022/03/11 01:19:41;;;;;;;15.00;8.57;;;-0.80;99.90;;;;;;4977603;28;20523;-80
2022/03/11 01:22:06;;;;;;;14.37;8.90;;;-0.80;99.90;;;;;;4979106;28;20648;-80
2022/03/11 01:24:33;;;;;;;17.60;8.60;;;-0.90;99.90;;;;;;4979456;28;20569;-81
2022/03/11 01:26:59;;;;;;;14.50;8.30;;;-1.00;99.90;;;;;;4980440;28;20227;-80
2022/03/11 01:29:24;;;;;;;12.43;7.47;;;-1.00;99.90;;;;;;4981410;28;20416;-81
2022/03/11 01:31:53;;;;;;;12.43;7.60;;;-1.00;99.90;;;;;;4979986;28;20419;-81
2022/03/11 01:34:20;;;;;;;11.90;7.17;;;-1.10;99.90;;;;;;4979074;28;20204;-80
2022/03/11 01:36:46;;;;;;;13.97;7.23;;;-1.30;99.90;;;;;;4979884;28;20462;-80
2022/03/11 01:39:12;;;;;;;10.33;6.73;;;-1.20;99.90;;;;;;4981065;28;20420;-80
2022/03/11 01:41:38;;;;;;;10.87;6.57;;;-1.30;99.90;;;;;;4980181;28;20215;-80
2022/03/11 01:44:09;;;;;;;15.87;6.50;;;-1.30;99.90;;;;;;4978453;28;20474;-80
2022/03/11 01:46:36;;;;;;;10.40;6.33;;;-1.30;99.90;;;;;;4979949;28;20271;-81
2022/03/11 01:49:04;;;;;;;11.07;6.40;;;-1.40;99.90;;;;;;4981052;28;20458;-80
2022/03/11 01:51:32;;;;;;;12.73;6.97;;;-1.50;99.90;;;;;;4981042;28;20451;-80
2022/03/11 01:53:59;;;;;;;13.77;6.97;;;-1.50;99.90;;;;;;4979336;28;20499;-81
2022/03/11 01:56:26;;;;;;;10.50;6.30;;;-1.10;99.90;;;;;;4979661;28;20507;-80
2022/03/11 01:58:55;;;;;;;14.00;7.40;;;-1.60;99.90;;;;;;4979610;28;20486;-81
2022/03/11 02:01:23;;;;;;;13.87;7.23;;;-1.70;99.90;;;;;;4979317;28;20430;-81
2022/03/11 02:03:49;;;;;;;9.97;6.93;;;-1.60;99.90;;;;;;4980319;28;20550;-82
2022/03/11 02:06:15;;;;;;;13.33;7.53;;;-1.60;99.90;;;;;;4979126;28;20451;-81
2022/03/11 02:08:41;;;;;;;17.70;7.70;;;-1.70;99.90;;;;;;4980750;28;20420;-81
2022/03/11 02:11:08;;;;;;;12.53;7.03;;;-1.70;99.90;;;;;;4979490;28;20427;-81
2022/03/11 02:13:53;;;;;;;11.63;6.90;;;-1.70;99.90;;;;;;4979068;28;20420;-81
2022/03/11 02:16:21;;;;;;;11.20;7.00;;;-1.80;99.90;;;;;;4981150;28;20500;-81
2022/03/11 02:18:47;;;;;;;12.43;7.43;;;-1.80;99.90;;;;;;4980967;28;20427;-81
2022/03/11 02:21:15;;;;;;;11.60;7.10;;;0.00;99.90;;;;;;4980229;28;20424;-81
2022/03/11 02:23:52;;;;;;;12.77;6.83;;;-1.90;99.90;;;;;;4992666;28;20207;-81
2022/03/11 02:26:19;;;;;;;10.43;6.93;;;-1.80;99.90;;;;;;4995964;28;20391;-81
2022/03/11 02:28:47;;;;;;;11.80;6.60;;;-1.90;99.90;;;;;;4987560;28;20447;-82
2022/03/11 02:31:13;;;;;;;12.53;7.20;;;-1.90;99.90;;;;;;4979576;28;20420;-81
2022/03/11 02:33:39;;;;;;;10.53;6.30;;;-2.00;99.90;;;;;;4978754;28;20925;-81
2022/03/11 02:36:06;;;;;;;14.00;7.40;;;-2.00;99.90;;;;;;4979424;28;20448;-81
2022/03/11 02:38:32;;;;;;;12.80;7.80;;;-2.00;99.90;;;;;;4981721;28;20434;-81
2022/03/11 02:40:58;;;;;;;13.33;7.73;;;-2.00;99.90;;;;;;4979124;28;20423;-81
2022/03/11 02:43:24;;;;;;;12.27;7.40;;;-1.40;99.90;;;;;;4977311;28;20518;-81
2022/03/11 02:45:50;;;;;;;12.47;7.57;;;-2.10;99.90;;;;;;4978581;28;20192;-81
2022/03/11 02:48:16;;;;;;;12.70;7.80;;;-2.00;99.90;;;;;;4978928;28;20177;-81
2022/03/11 02:50:42;;;;;;;13.87;7.63;;;-2.00;99.90;;;;;;4978500;28;20524;-81
2022/03/11 02:53:08;;;;;;;11.10;6.80;;;-2.00;99.90;;;;;;4977261;28;20490;-81
2022/03/11 02:55:34;;;;;;;12.53;7.23;;;-2.00;99.90;;;;;;4977118;28;20467;-81
2022/03/11 02:58:00;;;;;;;11.10;7.30;;;-2.10;99.90;;;;;;4977134;28;20184;-81
2022/03/11 03:00:26;;;;;;;16.33;7.57;;;-2.10;99.90;;;;;;4977170;28;20187;-81
2022/03/11 03:02:51;;;;;;;12.97;7.77;;;-2.20;99.90;;;;;;4976803;28;20216;-81
2022/03/11 03:05:17;;;;;;;11.40;7.37;;;-2.30;99.90;;;;;;4977118;28;20208;-81
2022/03/11 03:07:43;;;;;;;12.93;7.50;;;-2.30;99.90;;;;;;4976959;28;20599;-81
2022/03/11 03:10:16;;;;;;;13.43;7.43;;;-2.00;99.90;;;;;;4978514;28;20172;-81
2022/03/11 03:12:42;;;;;;;13.60;7.57;;;-2.50;99.90;;;;;;4978422;28;20227;-81
2022/03/11 03:15:09;;;;;;;12.33;7.23;;;-2.60;99.90;;;;;;4977209;28;20436;-81
2022/03/11 03:17:35;;;;;;;16.07;7.80;;;-2.60;99.90;;;;;;4977382;28;20206;-82
2022/03/11 03:20:03;;;;;;;16.33;7.70;;;-1.90;99.90;;;;;;4978444;28;20412;-81
2022/03/11 03:22:28;;;;;;;13.27;8.10;;;-2.50;99.90;;;;;;4978339;28;20822;-81
2022/03/11 03:24:54;;;;;;;12.80;7.27;;;-2.50;99.90;;;;;;4979305;28;20515;-81
2022/03/11 03:27:20;;;;;;;11.23;7.37;;;-2.50;99.90;;;;;;4979327;28;20176;-81
2022/03/11 03:29:46;;;;;;;16.23;8.27;;;-2.50;99.90;;;;;;4977932;28;20184;-81
2022/03/11 03:32:12;;;;;;;13.70;6.93;;;-2.50;99.90;;;;;;4977664;28;20184;-81
2022/03/11 03:34:38;;;;;;;13.73;7.60;;;-2.60;99.90;;;;;;4978754;28;20205;-81
2022/03/11 03:37:08;;;;;;;18.60;8.67;;;-2.60;99.90;;;;;;4977619;28;20282;-81
2022/03/11 03:39:35;;;;;;;15.53;9.23;;;-2.60;99.90;;;;;;4978105;28;20176;-81
2022/03/11 03:42:01;;;;;;;13.03;7.97;;;-2.70;99.90;;;;;;4978773;28;20428;-82
2022/03/11 03:44:27;;;;;;;14.70;8.03;;;-2.60;99.90;;;;;;4978085;28;20820;-82
2022/03/11 03:46:53;;;;;;;15.07;7.73;;;-2.40;99.90;;;;;;4979935;28;20447;-81
2022/03/11 03:49:20;;;;;;;15.27;8.70;;;-2.60;99.90;;;;;;4978318;28;20292;-81
2022/03/11 03:51:45;;;;;;;16.67;7.83;;;-2.60;99.90;;;;;;4980138;28;20448;-81
2022/03/11 03:54:11;;;;;;;11.03;7.20;;;-2.50;99.90;;;;;;4977498;28;20486;-81
2022/03/11 03:56:42;;;;;;;17.10;8.07;;;-2.60;99.90;;;;;;4974390;28;20177;-81
2022/03/11 03:59:10;;;;;;;16.47;8.43;;;-2.70;99.90;;;;;;4973994;28;20183;-81
2022/03/11 04:01:37;;;;;;;13.17;7.90;;;-2.80;99.90;;;;;;4977806;28;20416;-82
2022/03/11 04:04:04;;;;;;;13.87;7.80;;;-2.80;99.90;;;;;;4979871;28;20463;-82
2022/03/11 04:06:31;;;;;;;15.37;8.60;;;-2.90;99.90;;;;;;4994511;28;20515;-81
2022/03/11 04:08:57;;;;;;;21.37;8.50;;;-2.90;99.90;;;;;;4997493;28;20412;-81
2022/03/11 04:11:24;;;;;;;17.53;9.73;;;-2.90;99.90;;;;;;4996416;28;20420;-81
2022/03/11 04:13:50;;;;;;;22.87;10.87;;;-1.20;99.90;;;;;;4988977;28;20448;-81
2022/03/11 04:16:16;;;;;;;23.70;11.77;;;-2.90;99.90;;;;;;4979157;28;20427;-81
2022/03/11 04:18:42;;;;;;;15.93;9.77;;;-2.90;99.90;;;;;;4980908;28;20423;-81
2022/03/11 04:21:08;;;;;;;15.27;8.90;;;-2.90;99.90;;;;;;4980941;28;20427;-82
2022/03/11 04:23:34;;;;;;;13.57;8.00;;;-2.90;99.90;;;;;;4980713;28;20470;-81
2022/03/11 04:26:00;;;;;;;15.77;7.73;;;-2.80;99.90;;;;;;4980764;28;20192;-81
2022/03/11 04:28:26;;;;;;;12.63;7.47;;;-2.90;99.90;;;;;;4983178;28;20418;-80
2022/03/11 04:30:52;;;;;;;12.17;7.93;;;-2.90;99.90;;;;;;4982380;28;20420;-81
2022/03/11 04:33:18;;;;;;;13.30;8.17;;;-2.90;99.90;;;;;;4980224;28;20211;-81
2022/03/11 04:35:44;;;;;;;13.60;8.27;;;-2.90;99.90;;;;;;4979892;28;20538;-81
2022/03/11 04:38:10;;;;;;;19.13;10.17;;;-2.90;99.90;;;;;;4981620;28;20180;-81
2022/03/11 04:40:36;;;;;;;17.07;10.63;;;-2.90;99.90;;;;;;4980467;28;20192;-81
2022/03/11 04:43:02;;;;;;;17.53;9.77;;;-3.00;99.90;;;;;;4979987;28;21007;-81
2022/03/11 04:45:28;;;;;;;21.67;10.37;;;-3.00;99.90;;;;;;4981477;28;20271;-81
2022/03/11 04:47:54;;;;;;;21.07;10.97;;;-3.00;99.90;;;;;;4980188;28;20431;-81
2022/03/11 04:50:20;;;;;;;14.37;8.53;;;-3.00;99.90;;;;;;4980202;28;20992;-81
2022/03/11 04:52:46;;;;;;;13.80;7.13;;;-3.10;99.90;;;;;;4979749;28;20581;-81
2022/03/11 04:55:15;;;;;;;13.27;6.47;;;-3.10;99.90;;;;;;4981202;28;20523;-82
2022/03/11 04:57:44;;;;;;;11.80;7.00;;;-3.10;99.90;;;;;;4980239;28;20411;-81
2022/03/11 05:00:11;;;;;;;11.33;7.17;;;-3.10;99.90;;;;;;4980683;28;20434;-81
2022/03/11 05:02:37;;;;;;;12.40;7.00;;;-3.10;99.90;;;;;;4981726;28;20894;-82
2022/03/11 05:05:04;;;;;;;13.90;7.97;;;-3.00;99.90;;;;;;4982423;28;20486;-81
2022/03/11 05:07:30;;;;;;;11.90;7.63;;;-3.00;99.90;;;;;;4979389;28;20420;-81
2022/03/11 05:09:56;;;;;;;18.73;9.80;;;-3.00;99.90;;;;;;4979629;28;20650;-81
2022/03/11 05:12:21;;;;;;;17.57;9.67;;;-3.10;99.90;;;;;;4979104;28;20184;-81
2022/03/11 05:14:50;;;;;;;17.30;9.90;;;-3.10;99.90;;;;;;4980971;28;20196;-81
2022/03/11 05:17:16;;;;;;;16.27;9.23;;;-3.20;99.90;;;;;;4980863;28;20227;-81
2022/03/11 05:19:43;;;;;;;16.27;8.60;;;-3.20;99.90;;;;;;4978627;28;20438;-81
2022/03/11 05:22:08;;;;;;;16.67;9.20;;;-3.30;99.90;;;;;;4979072;28;20479;-81
2022/03/11 05:24:35;;;;;;;14.23;9.10;;;-3.30;99.90;;;;;;4979385;28;20471;-81
2022/03/11 05:27:02;;;;;;;13.57;8.37;;;-3.40;99.90;;;;;;4980809;28;20208;-82
2022/03/11 05:29:28;;;;;;;14.00;8.57;;;-3.40;99.90;;;;;;4979807;28;20925;-81
2022/03/11 05:31:54;;;;;;;11.67;7.97;;;-3.40;99.90;;;;;;4980235;28;20458;-81
2022/03/11 05:34:20;;;;;;;11.57;6.93;;;-3.40;99.90;;;;;;4980393;28;20439;-81
2022/03/11 05:36:45;;;;;;;11.37;7.03;;;-3.40;99.90;;;;;;4981147;28;20176;-81
2022/03/11 05:39:11;;;;;;;14.17;7.77;;;-3.40;99.90;;;;;;4985009;28;20172;-81
2022/03/11 05:41:37;;;;;;;12.60;7.07;;;-3.30;99.90;;;;;;4980552;28;20195;-81
2022/03/11 05:44:03;;;;;;;13.57;7.33;;;-3.30;99.90;;;;;;4980108;28;20214;-83
2022/03/11 05:46:29;;;;;;;12.20;7.40;;;-3.30;99.90;;;;;;4980364;28;20173;-81
2022/03/11 05:48:54;;;;;;;11.07;7.17;;;-3.30;99.90;;;;;;4990119;28;20176;-80
2022/03/11 05:51:20;;;;;;;14.10;7.43;;;-3.30;99.90;;;;;;4994163;28;20203;-80
2022/03/11 05:53:46;;;;;;;12.00;7.63;;;-3.30;99.90;;;;;;4988962;28;20208;-82
2022/03/11 05:56:11;;;;;;;13.70;6.97;;;-3.20;99.90;;;;;;4984261;28;20227;-81
2022/03/11 05:58:37;;;;;;;7.73;5.70;;;-3.20;99.90;;;;;;4985198;28;20665;-82
2022/03/11 06:01:03;;;;;;;9.43;6.17;;;-3.30;99.90;;;;;;4979077;28;20260;-82
2022/03/11 06:03:29;;;;;;;11.87;6.93;;;-3.30;99.90;;;;;;4978896;28;20208;-82
2022/03/11 06:05:55;;;;;;;13.97;7.30;;;-3.30;99.90;;;;;;4979391;28;20458;-82
2022/03/11 06:08:20;;;;;;;13.50;6.83;;;-3.20;99.90;;;;;;4980206;28;20212;-82
2022/03/11 06:10:47;;;;;;;15.67;7.20;;;-3.20;99.90;;;;;;4978524;28;20184;-82
2022/03/11 06:13:14;;;;;;;16.77;7.67;;;-3.20;99.90;;;;;;4978695;28;20188;-82
2022/03/11 06:15:41;;;;;;;12.10;7.30;;;-3.10;99.90;;;;;;4982030;28;20930;-82
2022/03/11 06:18:08;;;;;;;13.90;8.03;;;-3.10;99.90;;;;;;4978674;28;20986;-82
2022/03/11 06:20:35;;;;;;;11.80;6.93;;;-3.10;99.90;;;;;;4976817;28;20491;-82
2022/03/11 06:23:00;;;;;;;15.20;7.77;;;-3.00;99.90;;;;;;4976972;28;21013;-82
2022/03/11 06:25:26;;;;;;;20.03;8.37;;;-3.10;99.90;;;;;;4977151;28;20447;-82
2022/03/11 06:27:53;;;;;;;14.30;7.33;;;-3.00;99.90;;;;;;4976927;28;20222;-82
2022/03/11 06:30:18;;;;;;;24.23;8.00;;;-3.00;99.90;;;;;;4977316;28;20179;-82
2022/03/11 06:32:47;;;;;;;13.93;7.80;;;-2.90;99.90;;;;;;4978532;28;20470;-82
2022/03/11 06:35:13;;;;;;;11.73;7.17;;;-2.80;99.90;;;;;;4978162;28;20203;-80
2022/03/11 06:37:41;;;;;;;18.23;8.73;;;-2.80;99.90;;;;;;4977938;28;20902;-82
2022/03/11 06:40:08;;;;;;;21.67;10.50;;;-2.70;99.90;;;;;;4976204;28;20424;-81
2022/03/11 06:42:38;;;;;;;26.80;10.50;;;-2.50;99.90;;;;;;4975444;28;20428;-81
2022/03/11 06:45:06;;;;;;;21.50;10.40;;;-2.40;99.90;;;;;;4975457;28;20451;-81
2022/03/11 06:47:32;;;;;;;19.97;9.87;;;-2.30;99.90;;;;;;4974753;28;20839;-81
2022/03/11 06:49:57;;;;;;;22.43;9.47;;;-2.20;99.90;;;;;;4974889;28;20427;-82
2022/03/11 06:52:23;;;;;;;22.70;9.53;;;-2.10;99.90;;;;;;4975894;28;20430;-81
2022/03/11 06:54:49;;;;;;;14.67;8.90;;;-2.00;99.90;;;;;;4975288;28;20314;-82
2022/03/11 06:57:17;;;;;;;12.83;7.47;;;-1.90;99.90;;;;;;4975051;28;20176;-82
2022/03/11 06:59:47;;;;;;;18.57;9.30;;;-1.80;99.90;;;;;;4976827;28;20275;-83
2022/03/11 07:02:13;;;;;;;15.97;9.03;;;-1.80;99.90;;;;;;4977860;28;20925;-83
2022/03/11 07:04:39;;;;;;;18.93;9.43;;;-1.80;99.90;;;;;;4978807;28;20467;-83
2022/03/11 07:07:05;;;;;;;13.43;8.57;;;-0.30;99.90;;;;;;4977677;28;20242;-83
2022/03/11 07:09:31;;;;;;;14.10;8.47;;;;;;;;;;4978730;28;20187;-83
2022/03/11 07:11:57;;;;;;;17.73;8.80;;;-1.50;99.90;;;;;;4977358;28;20775;-83
2022/03/11 07:14:26;;;;;;;15.97;9.20;;;0.00;99.90;;;;;;4978756;28;20678;-83
2022/03/11 07:16:52;;;;;;;14.30;8.53;;;-1.20;99.90;;;;;;4977340;28;20427;-83
2022/03/11 07:19:21;;;;;;;17.60;9.40;;;-0.70;99.90;;;;;;4977480;28;20423;-83
2022/03/11 07:21:46;;;;;;;16.37;8.27;;;-1.10;99.90;;;;;;4976555;28;20184;-82
2022/03/11 07:24:12;;;;;;;13.60;8.40;;;0.10;99.90;;;;;;4977866;28;20471;-84
2022/03/11 07:26:38;;;;;;;21.23;9.53;;;-0.90;99.90;;;;;;4977055;28;20267;-83
2022/03/11 07:29:04;;;;;;;11.97;8.57;;;-0.70;99.90;;;;;;4979436;28;20172;-83
2022/03/11 07:31:29;;;;;;;15.77;9.83;;;-0.50;99.90;;;;;;4978331;28;20173;-83
2022/03/11 07:33:56;;;;;;;15.97;9.50;;;-0.50;99.90;;;;;;4976843;28;20180;-83
2022/03/11 07:36:21;;;;;;;18.67;10.13;;;-0.40;99.90;;;;;;4976660;28;20655;-83
2022/03/11 07:38:48;;;;;;;14.50;9.63;;;-0.20;99.90;;;;;;4976645;28;20428;-83
2022/03/11 07:41:17;;;;;;;15.83;10.00;;;0.10;99.90;;;;;;4977309;28;20227;-83
2022/03/11 07:43:44;;;;;;;14.97;9.93;;;0.40;99.90;;;;;;4977496;28;20510;-84
2022/03/11 07:46:16;;;;;;;15.13;9.53;;;1.10;99.90;;;;;;4978303;28;20985;-83
2022/03/11 07:48:42;;;;;;;14.73;9.63;;;1.90;99.90;;;;;;4978765;28;20396;-83
2022/03/11 07:51:08;;;;;;;19.27;10.67;;;2.90;99.90;;;;;;4977549;28;20416;-84
2022/03/11 07:53:36;;;;;;;19.17;10.67;;;3.80;99.90;;;;;;4976447;28;20424;-84
2022/03/11 07:56:04;;;;;;;18.70;11.80;;;4.30;99.90;;;;;;4976558;28;20498;-84
2022/03/11 07:58:30;;;;;;;17.17;10.53;;;4.70;99.90;;;;;;4978040;28;20419;-84
2022/03/11 08:00:56;;;;;;;14.93;10.23;;;5.10;99.90;;;;;;4979249;28;20702;-84
2022/03/11 08:03:22;;;;;;;17.63;11.30;;;5.40;99.90;;;;;;4978886;28;20216;-84
2022/03/11 08:05:48;;;;;;;14.33;11.00;;;5.50;99.90;;;;;;4977534;28;20219;-84
2022/03/11 08:08:15;;;;;;;16.87;11.57;;;5.70;99.90;;;;;;4977680;28;20176;-84
2022/03/11 08:10:41;;;;;;;17.43;11.53;;;5.70;99.10;;;;;;4977301;28;20184;-84
2022/03/11 08:13:07;;;;;;;16.60;11.70;;;6.20;98.50;;;;;;4977134;28;20228;-84
2022/03/11 08:15:37;;;;;;;19.00;12.23;;;6.40;97.50;;;;;;4977892;28;20780;-84
2022/03/11 08:18:03;;;;;;;15.40;11.13;;;6.30;98.60;;;;;;4978307;28;20183;-84
2022/03/11 08:20:30;;;;;;;17.07;12.27;;;6.90;96.70;;;;;;4977039;28;20641;-84
2022/03/11 08:22:55;;;;;;;25.13;11.53;;;7.10;95.90;;;;;;4978259;28;20606;-84
2022/03/11 08:25:26;;;;;;;17.23;12.40;;;7.60;94.00;;;;;;4976866;28;20202;-84
2022/03/11 08:27:53;;;;;;;19.70;11.90;;;7.80;92.50;;;;;;4977100;28;20172;-84
2022/03/11 08:30:19;;;;;;;21.57;12.93;;;8.30;91.70;;;;;;4977089;28;20300;-82
2022/03/11 08:32:45;;;;;;;17.63;12.80;;;8.20;91.90;;;;;;4978080;28;20182;-83
2022/03/11 08:35:11;;;;;;;18.50;12.53;;;8.10;91.20;;;;;;4977816;28;20192;-83
2022/03/11 08:37:37;;;;;;;21.70;14.23;;;7.70;90.30;;;;;;4977877;28;20184;-83
2022/03/11 08:40:06;;;;;;;17.50;13.67;;;7.30;92.20;;;;;;4976677;28;20184;-84
2022/03/11 08:42:32;;;;;;;17.30;13.10;;;7.30;92.20;;;;;;4977912;28;20180;-82
2022/03/11 08:45:00;;;;;;;16.10;11.40;;;7.40;93.30;;;;;;4975882;28;20212;-82
2022/03/11 08:47:26;;;;;;;18.80;13.77;;;7.60;93.40;;;;;;4975915;28;20176;-82
2022/03/11 08:49:54;;;;;;;18.57;12.47;;;7.70;92.60;;;;;;4976434;28;20259;-83
2022/03/11 08:52:21;;;;;;;14.33;11.13;;;7.80;92.80;;;;;;4977308;28;20157;-83
2022/03/11 08:54:46;;;;;;;16.43;11.70;;;8.00;91.10;;;;;;4978784;28;20211;-83
2022/03/11 08:57:12;;;;;;;16.07;11.80;;;7.70;92.40;;;;;;4979717;28;20712;-83
2022/03/11 08:59:38;;;;;;;15.90;11.50;;;7.80;92.00;;;;;;4980174;28;20184;-83
2022/03/11 09:02:07;;;;;;;16.70;11.20;;;7.90;91.90;;;;;;4981379;28;20211;-84
2022/03/11 09:04:33;;;;;;;15.50;11.43;;;8.40;90.50;;;;;;4981153;28;20213;-84
2022/03/11 09:06:59;;;;;;;14.53;11.40;;;8.40;89.30;;;;;;4980092;28;20228;-84
2022/03/11 09:09:25;;;;;;;15.57;11.80;;;8.60;89.60;;;;;;4981360;28;20184;-83
2022/03/11 09:11:51;;;;;;;13.37;10.97;;;8.70;89.50;;;;;;4979267;28;20280;-84
2022/03/11 09:14:18;;;;;;;14.83;11.13;;;8.70;87.10;;;;;;4979162;28;20193;-82
2022/03/11 09:16:44;;;;;;;13.27;10.20;;;8.70;89.10;;;;;;4979413;28;20176;-82
2022/03/11 09:19:10;;;;;;;15.13;11.50;;;8.80;88.80;;;;;;4979426;28;20178;-83
2022/03/11 09:21:36;;;;;;;13.27;10.73;;;9.00;83.70;;;;;;4979329;28;20547;-82
2022/03/11 09:24:01;;;;;;;13.60;10.47;;;8.80;86.40;;;;;;4979017;28;20207;-85
2022/03/11 09:26:28;;;;;;;15.67;10.47;;;8.90;83.30;;;;;;4980016;28;20205;-83
2022/03/11 09:28:54;;;;;;;11.67;9.60;;;9.30;84.00;;;;;;4981214;28;20258;-83
2022/03/11 09:31:20;;;;;;;14.03;10.53;;;9.30;82.70;;;;;;4990245;28;20171;-84
2022/03/11 09:33:45;;;;;;;13.80;10.03;;;9.20;84.70;;;;;;5000552;28;20782;-84
2022/03/11 09:36:12;;;;;;;15.77;10.63;;;9.50;83.80;;;;;;4980916;28;20233;-84
2022/03/11 09:38:38;;;;;;;14.40;11.17;;;9.80;84.90;;;;;;4980855;28;20719;-84
2022/03/11 09:41:05;;;;;;;13.63;11.00;;;9.80;83.20;;;;;;4980580;28;20187;-82
2022/03/11 09:43:32;;;;;;;13.00;11.30;;;9.80;81.10;;;;;;4982519;28;20271;-83
2022/03/11 09:45:58;;;;;;;14.87;10.70;;;10.10;83.50;;;;;;4986523;28;20205;-84
2022/03/11 09:48:25;;;;;;;13.40;10.53;;;10.40;78.50;;;;;;4983292;28;20639;-84
2022/03/11 09:50:51;;;;;;;17.03;10.50;;;10.50;78.70;;;;;;4982740;28;20185;-84
2022/03/11 09:53:17;;;;;;;14.87;11.03;;;10.80;77.80;;;;;;4982163;28;20227;-83
2022/03/11 09:55:44;;;;;;;13.93;10.33;;;11.10;77.60;;;;;;4982337;28;20228;-84
2022/03/11 09:58:10;;;;;;;14.60;10.13;;;11.50;73.00;;;;;;4984153;28;20259;-84
2022/03/11 10:00:36;;;;;;;13.57;10.33;;;11.00;71.40;;;;;;4987647;28;20191;-84
2022/03/11 10:03:03;;;;;;;13.50;10.57;;;11.10;75.00;;;;;;4981818;28;20262;-86
2022/03/11 10:05:48;;;;;;;11.10;9.83;;;11.40;73.10;;;;;;4983447;28;20197;-84
2022/03/11 10:08:14;;;;;;;16.40;10.97;;;11.40;71.70;;;;;;4990417;28;20571;-82
2022/03/11 10:10:40;;;;;;;14.73;10.57;;;11.80;72.50;;;;;;4996396;28;20173;-83
2022/03/11 10:13:11;;;;;;;11.40;9.97;;;12.00;72.40;;;;;;4996609;28;20199;-83
2022/03/11 10:15:41;;;;;;;12.90;9.53;;;12.20;69.60;;;;;;4981111;28;20194;-84
2022/03/11 10:18:09;;;;;;;11.57;9.50;;;11.90;66.80;;;;;;4978282;28;20240;-83
2022/03/11 10:20:35;;;;;;;11.07;9.10;;;11.60;67.40;;;;;;4978321;28;20184;-83
2022/03/11 10:23:07;;;;;;;12.90;9.20;;;12.10;66.90;;;;;;4979333;28;20177;-83
2022/03/11 10:25:33;;;;;;;10.80;8.37;;;12.30;65.60;;;;;;4978975;28;20191;-83
2022/03/11 10:28:03;;;;;;;10.33;9.23;;;12.10;64.90;;;;;;4978456;28;20187;-84
2022/03/11 10:30:31;;;;;;;11.23;9.00;;;12.10;64.80;;;;;;4979382;28;20188;-83
2022/03/11 10:32:59;;;;;;;11.47;8.73;;;12.30;65.20;;;;;;4977933;28;20183;-83
2022/03/11 10:35:39;;;;;;;12.87;8.40;;;12.70;62.80;;;;;;4979220;28;20243;-83
2022/03/11 10:38:14;;;;;;;10.60;8.60;;;12.00;63.80;;;;;;4979206;28;20173;-84
2022/03/11 10:40:48;;;;;;;11.27;8.27;;;11.80;62.70;;;;;;4980067;28;20171;-83
2022/03/11 10:43:26;;;;;;;10.97;7.83;;;11.30;63.00;;;;;;4980551;28;20208;-84
2022/03/11 10:46:01;;;;;;;12.33;7.47;;;11.40;64.10;;;;;;4979996;28;20202;-84
2022/03/11 10:48:47;;;;;;;8.80;6.57;;;11.60;62.10;;;;;;4980528;28;20320;-84
2022/03/11 10:51:33;;;;;;;8.90;7.43;;;11.80;63.30;;;;;;4980279;28;20192;-83
2022/03/11 10:54:00;;;;;;;11.23;7.80;;;11.80;60.40;;;;;;4980609;28;20220;-84
2022/03/11 10:56:39;;;;;;;8.30;7.20;;;12.20;60.30;;;;;;4980371;28;20251;-84
2022/03/11 10:59:26;;;;;;;8.83;7.47;;;12.40;60.50;;;;;;4981028;28;20545;-84
2022/03/11 11:01:53;;;;;;;8.83;7.17;;;12.70;60.40;;;;;;4982846;28;20160;-84
2022/03/11 11:04:19;;;;;;;7.97;7.10;;;13.30;59.40;;;;;;4981998;28;20200;-84
2022/03/11 11:06:46;;;;;;;9.67;7.27;;;12.90;60.00;;;;;;4983000;28;20190;-84
2022/03/11 11:09:13;;;;;;;8.77;7.80;;;13.40;58.40;;;;;;4984363;28;20215;-84
2022/03/11 11:11:40;;;;;;;9.53;7.23;;;13.40;57.90;;;;;;4985045;28;20204;-82
2022/03/11 11:14:08;;;;;;;9.87;7.43;;;13.40;56.10;;;;;;4985138;28;20211;-84
2022/03/11 11:16:39;;;;;;;8.80;6.90;;;13.40;55.70;;;;;;4985323;28;20260;-83
2022/03/11 11:19:09;;;;;;;11.17;7.13;;;13.50;56.80;;;;;;4985477;28;20601;-83
2022/03/11 11:21:38;;;;;;;9.53;7.07;;;13.70;55.90;;;;;;4986737;28;20169;-82
2022/03/11 11:24:09;;;;;;;9.40;7.10;;;14.00;53.60;;;;;;4984630;28;20523;-82
2022/03/11 11:26:38;;;;;;;10.23;7.03;;;14.40;55.90;;;;;;4977966;28;20174;-83
2022/03/11 11:29:05;;;;;;;10.20;7.10;;;14.20;52.50;;;;;;4979469;28;20183;-83
2022/03/11 11:31:32;;;;;;;11.17;6.90;;;13.80;54.90;;;;;;4980077;28;20209;-82
2022/03/11 11:33:57;;;;;;;10.60;7.57;;;14.10;53.50;;;;;;4978353;28;20265;-83
2022/03/11 11:36:35;;;;;;;9.00;7.70;;;14.40;52.70;;;;;;4977847;28;20594;-83
2022/03/11 11:39:05;;;;;;;9.50;7.10;;;14.70;52.10;;;;;;4977317;28;20185;-83
2022/03/11 11:41:31;;;;;;;11.23;7.00;;;14.60;51.80;;;;;;4979768;28;20168;-83
2022/03/11 11:44:00;;;;;;;8.13;6.83;;;14.60;51.90;;;;;;4978923;28;20191;-83
2022/03/11 11:46:28;;;;;;;11.50;6.90;;;14.50;52.10;;;;;;4978440;28;20185;-83
2022/03/11 11:48:55;;;;;;;9.33;7.90;;;14.80;51.20;;;;;;4979836;28;20231;-82
2022/03/11 11:51:23;;;;;;;9.73;7.77;;;14.40;49.00;;;;;;4981291;28;20176;-83
2022/03/11 11:53:54;;;;;;;9.43;7.30;;;14.60;50.70;;;;;;4980077;28;20269;-83
2022/03/11 11:56:33;;;;;;;14.20;8.20;;;14.90;48.30;;;;;;4978657;28;20192;-83
2022/03/11 11:59:04;;;;;;;12.40;7.80;;;14.10;49.00;;;;;;4978200;28;20186;-82
2022/03/11 12:01:39;;;;;;;9.13;7.60;;;13.90;48.50;;;;;;4976495;28;20176;-80
2022/03/11 12:04:29;;;;;;;11.30;7.20;;;14.10;49.80;;;;;;4977718;28;20207;-81
2022/03/11 12:07:16;;;;;;;9.17;7.37;;;14.50;48.30;;;;;;4977957;28;20172;-81
2022/03/11 12:09:47;;;;;;;12.13;7.50;;;15.40;47.00;;;;;;4977577;28;20266;-80
2022/03/11 12:12:22;;;;;;;11.57;7.87;;;15.80;45.50;;;;;;4977310;28;20193;-80
2022/03/11 12:15:08;;;;;;;9.20;7.37;;;16.10;45.50;;;;;;4978749;28;20227;-81
2022/03/11 12:17:44;;;;;;;11.27;7.50;;;16.40;44.80;;;;;;4978374;28;20153;-80
2022/03/11 12:20:38;;;;;;;12.07;8.77;;;15.60;43.00;;;;;;4976959;28;20179;-81
2022/03/11 12:23:15;;;;;;;12.77;7.97;;;14.80;45.30;;;;;;4976737;28;20169;-81
2022/03/11 12:25:45;;;;;;;12.00;8.03;;;15.60;46.10;;;;;;4977492;28;20211;-81
2022/03/11 12:28:20;;;;;;;9.67;7.97;;;15.80;44.30;;;;;;4978195;28;20204;-81
2022/03/11 12:30:49;;;;;;;9.70;8.47;;;15.50;44.60;;;;;;4981998;28;20195;-81
2022/03/11 12:33:23;;;;;;;12.63;8.90;;;15.40;43.30;;;;;;4980334;28;20205;-81
2022/03/11 12:35:52;;;;;;;15.10;10.90;;;15.70;42.10;;;;;;4982337;28;20191;-80
2022/03/11 12:38:20;;;;;;;10.80;8.17;;;16.10;45.20;;;;;;4984821;28;20179;-83
2022/03/11 12:40:47;;;;;;;11.97;8.30;;;16.70;43.70;;;;;;4983314;28;20227;-82